sensor_id;sensor_type;location;lat;lon;timestamp;P1;durP1;ratioP1;P2;durP2;ratioP2
47760;SDS011;33524;55.434;38.520;2023-03-01T00:00:20;5.30;;;2.55;;
47760;SDS011;33524;55.434;38.520;2023-03-01T00:02:50;4.25;;;1.87;;
47760;SDS011;33524;55.434;38.520;2023-03-01T00:05:19;4.62;;;2.22;;
47760;SDS011;33524;55.434;38.520;2023-03-01T00:07:52;4.07;;;2.62;;
47760;SDS011;33524;55.434;38.520;2023-03-01T00:10:22;5.75;;;2.37;;
47760;SDS011;33524;55.434;38.520;2023-03-01T00:12:52;3.95;;;1.92;;
47760;SDS011;33524;55.434;38.520;2023-03-01T00:15:23;4.47;;;1.95;;
47760;SDS011;33524;55.434;38.520;2023-03-01T00:17:53;5.32;;;2.75;;
47760;SDS011;33524;55.434;38.520;2023-03-01T00:20:22;4.62;;;1.90;;
47760;SDS011;33524;55.434;38.520;2023-03-01T00:22:51;4.95;;;2.65;;
47760;SDS011;33524;55.434;38.520;2023-03-01T00:25:21;3.20;;;1.70;;
47760;SDS011;33524;55.434;38.520;2023-03-01T00:27:50;5.22;;;2.25;;
47760;SDS011;33524;55.434;38.520;2023-03-01T00:30:20;2.05;;;1.40;;
47760;SDS011;33524;55.434;38.520;2023-03-01T00:32:50;3.85;;;1.58;;
47760;SDS011;33524;55.434;38.520;2023-03-01T00:35:19;9.05;;;1.95;;
47760;SDS011;33524;55.434;38.520;2023-03-01T00:37:51;3.80;;;1.87;;
47760;SDS011;33524;55.434;38.520;2023-03-01T00:40:26;2.47;;;1.62;;
47760;SDS011;33524;55.434;38.520;2023-03-01T00:42:58;5.03;;;1.70;;
47760;SDS011;33524;55.434;38.520;2023-03-01T00:45:28;4.40;;;2.08;;
47760;SDS011;33524;55.434;38.520;2023-03-01T00:47:59;3.22;;;2.10;;
47760;SDS011;33524;55.434;38.520;2023-03-01T00:50:29;5.15;;;2.10;;
47760;SDS011;33524;55.434;38.520;2023-03-01T00:52:58;4.55;;;2.17;;
47760;SDS011;33524;55.434;38.520;2023-03-01T00:55:28;5.55;;;2.08;;
47760;SDS011;33524;55.434;38.520;2023-03-01T00:57:58;7.22;;;2.17;;
47760;SDS011;33524;55.434;38.520;2023-03-01T01:00:28;5.20;;;1.70;;
47760;SDS011;33524;55.434;38.520;2023-03-01T01:02:58;3.55;;;2.50;;
47760;SDS011;33524;55.434;38.520;2023-03-01T01:05:27;4.93;;;2.10;;
47760;SDS011;33524;55.434;38.520;2023-03-01T01:07:57;2.65;;;1.80;;
47760;SDS011;33524;55.434;38.520;2023-03-01T01:10:27;3.30;;;1.80;;
47760;SDS011;33524;55.434;38.520;2023-03-01T01:12:56;3.40;;;1.70;;
47760;SDS011;33524;55.434;38.520;2023-03-01T01:15:27;5.93;;;1.98;;
47760;SDS011;33524;55.434;38.520;2023-03-01T01:17:56;2.75;;;1.65;;
47760;SDS011;33524;55.434;38.520;2023-03-01T01:20:26;3.42;;;2.33;;
47760;SDS011;33524;55.434;38.520;2023-03-01T01:22:56;4.30;;;2.17;;
47760;SDS011;33524;55.434;38.520;2023-03-01T01:25:26;5.07;;;1.83;;
47760;SDS011;33524;55.434;38.520;2023-03-01T01:27:56;5.75;;;2.22;;
47760;SDS011;33524;55.434;38.520;2023-03-01T01:30:25;4.22;;;1.80;;
47760;SDS011;33524;55.434;38.520;2023-03-01T01:32:55;2.65;;;1.58;;
47760;SDS011;33524;55.434;38.520;2023-03-01T01:35:25;2.28;;;1.55;;
47760;SDS011;33524;55.434;38.520;2023-03-01T01:37:56;5.43;;;1.92;;
47760;SDS011;33524;55.434;38.520;2023-03-01T01:40:25;4.78;;;1.75;;
47760;SDS011;33524;55.434;38.520;2023-03-01T01:42:54;3.35;;;1.48;;
47760;SDS011;33524;55.434;38.520;2023-03-01T01:45:27;4.10;;;2.08;;
47760;SDS011;33524;55.434;38.520;2023-03-01T01:48:02;3.60;;;1.92;;
47760;SDS011;33524;55.434;38.520;2023-03-01T01:50:39;3.85;;;2.03;;
47760;SDS011;33524;55.434;38.520;2023-03-01T01:53:10;5.35;;;2.03;;
47760;SDS011;33524;55.434;38.520;2023-03-01T01:55:44;6.57;;;2.25;;
47760;SDS011;33524;55.434;38.520;2023-03-01T01:58:18;6.20;;;2.95;;
47760;SDS011;33524;55.434;38.520;2023-03-01T02:00:49;15.50;;;5.22;;
47760;SDS011;33524;55.434;38.520;2023-03-01T02:03:23;7.37;;;2.45;;
47760;SDS011;33524;55.434;38.520;2023-03-01T02:06:03;11.12;;;2.40;;
47760;SDS011;33524;55.434;38.520;2023-03-01T02:08:40;6.30;;;2.30;;
47760;SDS011;33524;55.434;38.520;2023-03-01T02:11:13;8.32;;;2.53;;
47760;SDS011;33524;55.434;38.520;2023-03-01T02:13:44;7.32;;;2.72;;
47760;SDS011;33524;55.434;38.520;2023-03-01T02:16:17;8.48;;;2.87;;
47760;SDS011;33524;55.434;38.520;2023-03-01T02:18:47;8.70;;;2.70;;
47760;SDS011;33524;55.434;38.520;2023-03-01T02:23:53;8.40;;;3.40;;
47760;SDS011;33524;55.434;38.520;2023-03-01T02:26:34;12.80;;;3.55;;
47760;SDS011;33524;55.434;38.520;2023-03-01T02:29:14;9.43;;;2.50;;
47760;SDS011;33524;55.434;38.520;2023-03-01T02:31:43;5.20;;;2.00;;
47760;SDS011;33524;55.434;38.520;2023-03-01T02:34:16;6.13;;;2.80;;
47760;SDS011;33524;55.434;38.520;2023-03-01T02:37:06;9.18;;;2.30;;
47760;SDS011;33524;55.434;38.520;2023-03-01T02:39:42;8.23;;;2.62;;
47760;SDS011;33524;55.434;38.520;2023-03-01T02:42:21;4.35;;;1.85;;
47760;SDS011;33524;55.434;38.520;2023-03-01T02:44:54;5.07;;;1.75;;
47760;SDS011;33524;55.434;38.520;2023-03-01T02:47:24;6.72;;;2.22;;
47760;SDS011;33524;55.434;38.520;2023-03-01T02:49:53;3.42;;;1.70;;
47760;SDS011;33524;55.434;38.520;2023-03-01T02:55:06;3.08;;;1.60;;
47760;SDS011;33524;55.434;38.520;2023-03-01T02:57:40;4.87;;;1.58;;
47760;SDS011;33524;55.434;38.520;2023-03-01T03:02:49;3.55;;;1.60;;
47760;SDS011;33524;55.434;38.520;2023-03-01T03:05:21;5.28;;;1.95;;
47760;SDS011;33524;55.434;38.520;2023-03-01T03:07:55;9.52;;;2.30;;
47760;SDS011;33524;55.434;38.520;2023-03-01T03:10:28;7.62;;;3.20;;
47760;SDS011;33524;55.434;38.520;2023-03-01T03:13:04;3.33;;;2.12;;
47760;SDS011;33524;55.434;38.520;2023-03-01T03:15:36;3.40;;;1.85;;
47760;SDS011;33524;55.434;38.520;2023-03-01T03:18:08;5.57;;;1.98;;
47760;SDS011;33524;55.434;38.520;2023-03-01T03:20:41;4.10;;;1.70;;
47760;SDS011;33524;55.434;38.520;2023-03-01T03:23:12;4.50;;;2.28;;
47760;SDS011;33524;55.434;38.520;2023-03-01T03:25:41;6.15;;;2.65;;
47760;SDS011;33524;55.434;38.520;2023-03-01T03:28:11;5.95;;;3.17;;
47760;SDS011;33524;55.434;38.520;2023-03-01T03:30:41;7.43;;;3.78;;
47760;SDS011;33524;55.434;38.520;2023-03-01T03:33:11;12.35;;;4.95;;
47760;SDS011;33524;55.434;38.520;2023-03-01T03:35:42;7.12;;;2.45;;
47760;SDS011;33524;55.434;38.520;2023-03-01T03:38:13;5.85;;;2.75;;
47760;SDS011;33524;55.434;38.520;2023-03-01T03:40:47;4.37;;;2.33;;
47760;SDS011;33524;55.434;38.520;2023-03-01T03:43:20;4.20;;;2.45;;
47760;SDS011;33524;55.434;38.520;2023-03-01T03:45:51;6.05;;;2.67;;
47760;SDS011;33524;55.434;38.520;2023-03-01T03:48:22;4.80;;;2.35;;
47760;SDS011;33524;55.434;38.520;2023-03-01T03:50:54;6.53;;;2.45;;
47760;SDS011;33524;55.434;38.520;2023-03-01T03:53:25;6.53;;;1.90;;
47760;SDS011;33524;55.434;38.520;2023-03-01T03:55:55;10.80;;;3.30;;
47760;SDS011;33524;55.434;38.520;2023-03-01T03:58:25;10.20;;;3.47;;
47760;SDS011;33524;55.434;38.520;2023-03-01T04:00:56;21.45;;;6.87;;
47760;SDS011;33524;55.434;38.520;2023-03-01T04:03:26;32.38;;;13.40;;
47760;SDS011;33524;55.434;38.520;2023-03-01T04:05:57;42.70;;;14.65;;
47760;SDS011;33524;55.434;38.520;2023-03-01T04:08:28;28.12;;;11.60;;
47760;SDS011;33524;55.434;38.520;2023-03-01T04:10:59;15.80;;;6.35;;
47760;SDS011;33524;55.434;38.520;2023-03-01T04:13:49;7.20;;;3.12;;
47760;SDS011;33524;55.434;38.520;2023-03-01T04:16:20;4.93;;;2.47;;
47760;SDS011;33524;55.434;38.520;2023-03-01T04:18:51;3.75;;;2.03;;
47760;SDS011;33524;55.434;38.520;2023-03-01T04:21:22;5.55;;;2.67;;
47760;SDS011;33524;55.434;38.520;2023-03-01T04:23:57;3.97;;;1.98;;
47760;SDS011;33524;55.434;38.520;2023-03-01T04:26:26;4.28;;;2.17;;
47760;SDS011;33524;55.434;38.520;2023-03-01T04:28:56;4.57;;;1.83;;
47760;SDS011;33524;55.434;38.520;2023-03-01T04:31:26;2.60;;;2.05;;
47760;SDS011;33524;55.434;38.520;2023-03-01T04:33:55;4.03;;;1.90;;
47760;SDS011;33524;55.434;38.520;2023-03-01T04:36:26;1.98;;;1.75;;
47760;SDS011;33524;55.434;38.520;2023-03-01T04:38:58;6.85;;;2.25;;
47760;SDS011;33524;55.434;38.520;2023-03-01T04:41:40;14.75;;;7.00;;
47760;SDS011;33524;55.434;38.520;2023-03-01T04:44:12;11.05;;;5.60;;
47760;SDS011;33524;55.434;38.520;2023-03-01T04:46:42;14.55;;;6.15;;
47760;SDS011;33524;55.434;38.520;2023-03-01T04:49:12;23.05;;;9.13;;
47760;SDS011;33524;55.434;38.520;2023-03-01T04:51:42;18.90;;;9.05;;
47760;SDS011;33524;55.434;38.520;2023-03-01T04:54:11;12.07;;;6.53;;
47760;SDS011;33524;55.434;38.520;2023-03-01T04:56:40;12.55;;;5.47;;
47760;SDS011;33524;55.434;38.520;2023-03-01T04:59:10;6.22;;;3.33;;
47760;SDS011;33524;55.434;38.520;2023-03-01T05:02:00;6.82;;;3.08;;
47760;SDS011;33524;55.434;38.520;2023-03-01T05:04:30;6.47;;;3.30;;
47760;SDS011;33524;55.434;38.520;2023-03-01T05:07:00;8.75;;;3.55;;
47760;SDS011;33524;55.434;38.520;2023-03-01T05:09:30;7.80;;;3.03;;
47760;SDS011;33524;55.434;38.520;2023-03-01T05:11:59;5.15;;;2.90;;
47760;SDS011;33524;55.434;38.520;2023-03-01T05:14:30;5.35;;;2.85;;
47760;SDS011;33524;55.434;38.520;2023-03-01T05:16:59;7.90;;;4.93;;
47760;SDS011;33524;55.434;38.520;2023-03-01T05:19:32;6.85;;;3.47;;
47760;SDS011;33524;55.434;38.520;2023-03-01T05:22:02;5.12;;;3.37;;
47760;SDS011;33524;55.434;38.520;2023-03-01T05:24:34;2.62;;;1.80;;
47760;SDS011;33524;55.434;38.520;2023-03-01T05:27:04;5.28;;;2.80;;
47760;SDS011;33524;55.434;38.520;2023-03-01T05:29:35;4.15;;;2.42;;
47760;SDS011;33524;55.434;38.520;2023-03-01T05:32:04;6.80;;;2.72;;
47760;SDS011;33524;55.434;38.520;2023-03-01T05:37:17;6.35;;;3.30;;
47760;SDS011;33524;55.434;38.520;2023-03-01T05:39:49;5.70;;;3.20;;
47760;SDS011;33524;55.434;38.520;2023-03-01T05:42:19;4.97;;;2.53;;
47760;SDS011;33524;55.434;38.520;2023-03-01T05:44:50;4.05;;;2.67;;
47760;SDS011;33524;55.434;38.520;2023-03-01T05:47:19;8.15;;;2.75;;
47760;SDS011;33524;55.434;38.520;2023-03-01T05:49:49;5.72;;;2.37;;
47760;SDS011;33524;55.434;38.520;2023-03-01T05:52:19;4.22;;;2.05;;
47760;SDS011;33524;55.434;38.520;2023-03-01T05:54:48;6.82;;;2.90;;
47760;SDS011;33524;55.434;38.520;2023-03-01T05:57:18;4.57;;;2.90;;
47760;SDS011;33524;55.434;38.520;2023-03-01T05:59:48;4.00;;;2.00;;
47760;SDS011;33524;55.434;38.520;2023-03-01T06:02:18;5.22;;;2.67;;
47760;SDS011;33524;55.434;38.520;2023-03-01T06:04:48;4.05;;;1.92;;
47760;SDS011;33524;55.434;38.520;2023-03-01T06:07:17;6.03;;;2.50;;
47760;SDS011;33524;55.434;38.520;2023-03-01T06:09:47;2.87;;;1.85;;
47760;SDS011;33524;55.434;38.520;2023-03-01T06:12:16;4.87;;;2.25;;
47760;SDS011;33524;55.434;38.520;2023-03-01T06:14:46;4.32;;;1.62;;
47760;SDS011;33524;55.434;38.520;2023-03-01T06:17:17;3.17;;;1.58;;
47760;SDS011;33524;55.434;38.520;2023-03-01T06:19:47;2.65;;;1.77;;
47760;SDS011;33524;55.434;38.520;2023-03-01T06:22:16;4.00;;;2.25;;
47760;SDS011;33524;55.434;38.520;2023-03-01T06:24:45;3.58;;;1.73;;
47760;SDS011;33524;55.434;38.520;2023-03-01T06:27:15;3.15;;;2.08;;
47760;SDS011;33524;55.434;38.520;2023-03-01T06:29:45;2.70;;;2.22;;
47760;SDS011;33524;55.434;38.520;2023-03-01T06:32:14;4.20;;;2.20;;
47760;SDS011;33524;55.434;38.520;2023-03-01T06:34:44;3.05;;;1.60;;
47760;SDS011;33524;55.434;38.520;2023-03-01T06:37:14;5.82;;;2.22;;
47760;SDS011;33524;55.434;38.520;2023-03-01T06:39:44;6.15;;;1.98;;
47760;SDS011;33524;55.434;38.520;2023-03-01T06:42:14;3.47;;;2.12;;
47760;SDS011;33524;55.434;38.520;2023-03-01T06:44:43;2.55;;;1.55;;
47760;SDS011;33524;55.434;38.520;2023-03-01T06:47:14;4.47;;;2.08;;
47760;SDS011;33524;55.434;38.520;2023-03-01T06:49:43;4.32;;;2.10;;
47760;SDS011;33524;55.434;38.520;2023-03-01T06:52:13;4.00;;;1.77;;
47760;SDS011;33524;55.434;38.520;2023-03-01T06:54:44;6.32;;;2.70;;
47760;SDS011;33524;55.434;38.520;2023-03-01T06:57:13;4.53;;;2.28;;
47760;SDS011;33524;55.434;38.520;2023-03-01T06:59:42;3.40;;;1.70;;
47760;SDS011;33524;55.434;38.520;2023-03-01T07:02:17;4.30;;;2.20;;
47760;SDS011;33524;55.434;38.520;2023-03-01T07:04:48;3.85;;;2.40;;
47760;SDS011;33524;55.434;38.520;2023-03-01T07:07:19;3.85;;;1.77;;
47760;SDS011;33524;55.434;38.520;2023-03-01T07:09:49;3.90;;;1.62;;
47760;SDS011;33524;55.434;38.520;2023-03-01T07:12:19;3.87;;;2.10;;
47760;SDS011;33524;55.434;38.520;2023-03-01T07:14:49;4.25;;;2.25;;
47760;SDS011;33524;55.434;38.520;2023-03-01T07:17:19;6.00;;;3.05;;
47760;SDS011;33524;55.434;38.520;2023-03-01T07:19:48;2.25;;;1.20;;
47760;SDS011;33524;55.434;38.520;2023-03-01T07:22:17;4.30;;;1.85;;
47760;SDS011;33524;55.434;38.520;2023-03-01T07:24:47;6.05;;;2.25;;
47760;SDS011;33524;55.434;38.520;2023-03-01T07:27:17;3.25;;;2.00;;
47760;SDS011;33524;55.434;38.520;2023-03-01T07:29:46;4.03;;;2.22;;
47760;SDS011;33524;55.434;38.520;2023-03-01T07:32:17;4.35;;;2.10;;
47760;SDS011;33524;55.434;38.520;2023-03-01T07:34:47;2.85;;;1.85;;
47760;SDS011;33524;55.434;38.520;2023-03-01T07:37:19;4.28;;;1.92;;
47760;SDS011;33524;55.434;38.520;2023-03-01T07:39:48;3.30;;;1.98;;
47760;SDS011;33524;55.434;38.520;2023-03-01T07:42:17;3.53;;;2.12;;
47760;SDS011;33524;55.434;38.520;2023-03-01T07:44:47;7.45;;;2.17;;
47760;SDS011;33524;55.434;38.520;2023-03-01T07:47:17;13.45;;;2.40;;
47760;SDS011;33524;55.434;38.520;2023-03-01T07:49:46;5.82;;;2.58;;
47760;SDS011;33524;55.434;38.520;2023-03-01T07:52:16;4.03;;;1.75;;
47760;SDS011;33524;55.434;38.520;2023-03-01T07:54:45;3.37;;;2.08;;
47760;SDS011;33524;55.434;38.520;2023-03-01T07:57:15;4.60;;;2.28;;
47760;SDS011;33524;55.434;38.520;2023-03-01T07:59:45;6.40;;;1.90;;
47760;SDS011;33524;55.434;38.520;2023-03-01T08:02:14;4.25;;;2.45;;
47760;SDS011;33524;55.434;38.520;2023-03-01T08:04:43;4.00;;;2.00;;
47760;SDS011;33524;55.434;38.520;2023-03-01T08:07:13;2.80;;;1.67;;
47760;SDS011;33524;55.434;38.520;2023-03-01T08:09:42;8.05;;;4.60;;
47760;SDS011;33524;55.434;38.520;2023-03-01T08:12:13;4.80;;;2.90;;
47760;SDS011;33524;55.434;38.520;2023-03-01T08:14:44;5.93;;;2.78;;
47760;SDS011;33524;55.434;38.520;2023-03-01T08:17:16;5.68;;;2.47;;
47760;SDS011;33524;55.434;38.520;2023-03-01T08:19:46;8.27;;;3.60;;
47760;SDS011;33524;55.434;38.520;2023-03-01T08:22:16;3.45;;;2.47;;
47760;SDS011;33524;55.434;38.520;2023-03-01T08:24:46;4.30;;;2.35;;
47760;SDS011;33524;55.434;38.520;2023-03-01T08:27:16;4.45;;;2.30;;
47760;SDS011;33524;55.434;38.520;2023-03-01T08:29:46;2.80;;;1.70;;
47760;SDS011;33524;55.434;38.520;2023-03-01T08:32:15;4.40;;;2.70;;
47760;SDS011;33524;55.434;38.520;2023-03-01T08:34:46;3.33;;;2.00;;
47760;SDS011;33524;55.434;38.520;2023-03-01T08:37:16;3.22;;;2.12;;
47760;SDS011;33524;55.434;38.520;2023-03-01T08:39:46;3.03;;;1.80;;
47760;SDS011;33524;55.434;38.520;2023-03-01T08:42:16;6.90;;;2.28;;
47760;SDS011;33524;55.434;38.520;2023-03-01T08:44:45;6.32;;;2.37;;
47760;SDS011;33524;55.434;38.520;2023-03-01T08:47:14;2.83;;;1.62;;
47760;SDS011;33524;55.434;38.520;2023-03-01T08:49:45;3.50;;;2.45;;
47760;SDS011;33524;55.434;38.520;2023-03-01T08:52:14;4.72;;;2.58;;
47760;SDS011;33524;55.434;38.520;2023-03-01T08:54:44;2.80;;;1.98;;
47760;SDS011;33524;55.434;38.520;2023-03-01T08:57:14;6.12;;;2.55;;
47760;SDS011;33524;55.434;38.520;2023-03-01T08:59:44;2.87;;;1.50;;
47760;SDS011;33524;55.434;38.520;2023-03-01T09:02:14;3.10;;;2.15;;
47760;SDS011;33524;55.434;38.520;2023-03-01T09:04:45;10.07;;;2.40;;
47760;SDS011;33524;55.434;38.520;2023-03-01T09:07:16;7.15;;;2.72;;
47760;SDS011;33524;55.434;38.520;2023-03-01T09:09:45;5.50;;;2.78;;
47760;SDS011;33524;55.434;38.520;2023-03-01T09:12:15;4.82;;;2.62;;
47760;SDS011;33524;55.434;38.520;2023-03-01T09:14:45;5.10;;;1.65;;
47760;SDS011;33524;55.434;38.520;2023-03-01T09:17:15;4.65;;;2.15;;
47760;SDS011;33524;55.434;38.520;2023-03-01T09:19:45;9.50;;;3.42;;
47760;SDS011;33524;55.434;38.520;2023-03-01T09:22:14;5.60;;;3.03;;
47760;SDS011;33524;55.434;38.520;2023-03-01T09:24:44;2.28;;;1.25;;
47760;SDS011;33524;55.434;38.520;2023-03-01T09:27:16;3.83;;;2.12;;
47760;SDS011;33524;55.434;38.520;2023-03-01T09:29:49;7.40;;;2.87;;
47760;SDS011;33524;55.434;38.520;2023-03-01T09:32:18;3.72;;;1.90;;
47760;SDS011;33524;55.434;38.520;2023-03-01T09:34:48;4.25;;;2.15;;
47760;SDS011;33524;55.434;38.520;2023-03-01T09:37:34;3.58;;;3.37;;
47760;SDS011;33524;55.434;38.520;2023-03-01T09:40:04;5.72;;;2.47;;
47760;SDS011;33524;55.434;38.520;2023-03-01T09:42:44;2.62;;;1.40;;
47760;SDS011;33524;55.434;38.520;2023-03-01T09:45:25;4.35;;;2.22;;
47760;SDS011;33524;55.434;38.520;2023-03-01T09:48:19;4.72;;;1.98;;
47760;SDS011;33524;55.434;38.520;2023-03-01T09:50:52;2.83;;;1.45;;
47760;SDS011;33524;55.434;38.520;2023-03-01T09:53:24;6.22;;;2.58;;
47760;SDS011;33524;55.434;38.520;2023-03-01T09:58:53;3.97;;;2.05;;
47760;SDS011;33524;55.434;38.520;2023-03-01T10:01:43;5.57;;;2.45;;
47760;SDS011;33524;55.434;38.520;2023-03-01T10:04:38;3.55;;;2.03;;
47760;SDS011;33524;55.434;38.520;2023-03-01T10:09:55;3.85;;;2.05;;
47760;SDS011;33524;55.434;38.520;2023-03-01T10:12:33;5.43;;;2.42;;
47760;SDS011;33524;55.434;38.520;2023-03-01T10:15:07;3.50;;;1.75;;
47760;SDS011;33524;55.434;38.520;2023-03-01T10:20:42;6.10;;;2.08;;
47760;SDS011;33524;55.434;38.520;2023-03-01T10:23:23;7.32;;;2.78;;
47760;SDS011;33524;55.434;38.520;2023-03-01T10:29:05;3.97;;;2.20;;
47760;SDS011;33524;55.434;38.520;2023-03-01T10:31:44;4.85;;;2.62;;
47760;SDS011;33524;55.434;38.520;2023-03-01T10:34:28;4.43;;;2.17;;
47760;SDS011;33524;55.434;38.520;2023-03-01T10:37:04;9.10;;;2.03;;
47760;SDS011;33524;55.434;38.520;2023-03-01T10:39:54;5.03;;;2.17;;
47760;SDS011;33524;55.434;38.520;2023-03-01T10:42:27;4.62;;;2.05;;
47760;SDS011;33524;55.434;38.520;2023-03-01T10:45:14;3.55;;;2.30;;
47760;SDS011;33524;55.434;38.520;2023-03-01T10:48:17;4.18;;;2.33;;
47760;SDS011;33524;55.434;38.520;2023-03-01T10:50:46;4.80;;;2.15;;
47760;SDS011;33524;55.434;38.520;2023-03-01T10:53:21;5.35;;;2.22;;
47760;SDS011;33524;55.434;38.520;2023-03-01T10:55:56;4.25;;;2.10;;
47760;SDS011;33524;55.434;38.520;2023-03-01T10:58:27;5.70;;;2.47;;
47760;SDS011;33524;55.434;38.520;2023-03-01T11:01:00;7.05;;;2.35;;
47760;SDS011;33524;55.434;38.520;2023-03-01T11:03:35;8.50;;;2.60;;
47760;SDS011;33524;55.434;38.520;2023-03-01T11:06:19;6.53;;;3.00;;
47760;SDS011;33524;55.434;38.520;2023-03-01T11:08:51;6.00;;;2.12;;
47760;SDS011;33524;55.434;38.520;2023-03-01T11:11:24;3.97;;;1.95;;
47760;SDS011;33524;55.434;38.520;2023-03-01T11:14:07;8.68;;;4.05;;
47760;SDS011;33524;55.434;38.520;2023-03-01T11:17:58;5.87;;;2.80;;
47760;SDS011;33524;55.434;38.520;2023-03-01T11:20:53;6.70;;;2.10;;
47760;SDS011;33524;55.434;38.520;2023-03-01T11:22:49;4.50;;;2.20;;
47760;SDS011;33524;55.434;38.520;2023-03-01T11:25:24;5.53;;;2.00;;
47760;SDS011;33524;55.434;38.520;2023-03-01T11:27:58;6.35;;;2.40;;
47760;SDS011;33524;55.434;38.520;2023-03-01T11:35:45;5.32;;;2.47;;
47760;SDS011;33524;55.434;38.520;2023-03-01T11:38:24;5.95;;;3.20;;
47760;SDS011;33524;55.434;38.520;2023-03-01T11:46:31;9.63;;;2.40;;
47760;SDS011;33524;55.434;38.520;2023-03-01T11:49:48;2.00;;;1.27;;
47760;SDS011;33524;55.434;38.520;2023-03-01T11:52:21;1.90;;;1.33;;
47760;SDS011;33524;55.434;38.520;2023-03-01T12:06:38;2.62;;;1.45;;
47760;SDS011;33524;55.434;38.520;2023-03-01T12:09:28;6.25;;;2.47;;
47760;SDS011;33524;55.434;38.520;2023-03-01T12:16:15;4.53;;;2.00;;
47760;SDS011;33524;55.434;38.520;2023-03-01T12:27:00;4.72;;;2.30;;
47760;SDS011;33524;55.434;38.520;2023-03-01T12:29:39;3.58;;;1.45;;
47760;SDS011;33524;55.434;38.520;2023-03-01T12:32:40;3.83;;;1.80;;
47760;SDS011;33524;55.434;38.520;2023-03-01T12:41:07;3.58;;;1.83;;
47760;SDS011;33524;55.434;38.520;2023-03-01T12:52:12;3.55;;;1.62;;
47760;SDS011;33524;55.434;38.520;2023-03-01T12:54:44;5.30;;;1.50;;
47760;SDS011;33524;55.434;38.520;2023-03-01T12:57:24;4.30;;;1.90;;
47760;SDS011;33524;55.434;38.520;2023-03-01T13:02:53;3.45;;;1.75;;
47760;SDS011;33524;55.434;38.520;2023-03-01T13:08:43;3.53;;;2.20;;
47760;SDS011;33524;55.434;38.520;2023-03-01T13:11:16;3.92;;;2.25;;
47760;SDS011;33524;55.434;38.520;2023-03-01T13:13:51;3.78;;;2.00;;
47760;SDS011;33524;55.434;38.520;2023-03-01T13:16:40;2.97;;;1.77;;
47760;SDS011;33524;55.434;38.520;2023-03-01T13:19:14;4.85;;;2.20;;
47760;SDS011;33524;55.434;38.520;2023-03-01T13:21:47;3.12;;;1.70;;
47760;SDS011;33524;55.434;38.520;2023-03-01T13:24:36;4.03;;;2.40;;
47760;SDS011;33524;55.434;38.520;2023-03-01T13:27:09;3.50;;;2.42;;
47760;SDS011;33524;55.434;38.520;2023-03-01T13:32:25;3.30;;;1.52;;
47760;SDS011;33524;55.434;38.520;2023-03-01T13:41:15;4.82;;;1.75;;
47760;SDS011;33524;55.434;38.520;2023-03-01T13:44:37;5.10;;;2.62;;
47760;SDS011;33524;55.434;38.520;2023-03-01T13:49:52;4.15;;;1.90;;
47760;SDS011;33524;55.434;38.520;2023-03-01T13:55:03;6.27;;;2.03;;
47760;SDS011;33524;55.434;38.520;2023-03-01T13:57:47;2.05;;;1.85;;
47760;SDS011;33524;55.434;38.520;2023-03-01T14:00:25;7.95;;;2.40;;
47760;SDS011;33524;55.434;38.520;2023-03-01T14:03:13;4.65;;;3.28;;
47760;SDS011;33524;55.434;38.520;2023-03-01T14:06:52;3.67;;;2.15;;
47760;SDS011;33524;55.434;38.520;2023-03-01T14:08:46;5.07;;;2.03;;
47760;SDS011;33524;55.434;38.520;2023-03-01T14:11:41;4.35;;;2.50;;
47760;SDS011;33524;55.434;38.520;2023-03-01T14:19:30;3.03;;;1.75;;
47760;SDS011;33524;55.434;38.520;2023-03-01T14:24:55;4.87;;;1.85;;
47760;SDS011;33524;55.434;38.520;2023-03-01T14:27:30;2.65;;;1.75;;
47760;SDS011;33524;55.434;38.520;2023-03-01T14:33:00;6.82;;;3.00;;
47760;SDS011;33524;55.434;38.520;2023-03-01T14:35:35;9.18;;;3.30;;
47760;SDS011;33524;55.434;38.520;2023-03-01T14:38:05;5.85;;;2.47;;
47760;SDS011;33524;55.434;38.520;2023-03-01T14:40:36;5.15;;;1.90;;
47760;SDS011;33524;55.434;38.520;2023-03-01T14:43:09;4.82;;;1.85;;
47760;SDS011;33524;55.434;38.520;2023-03-01T14:45:48;6.55;;;2.50;;
47760;SDS011;33524;55.434;38.520;2023-03-01T14:48:19;5.10;;;1.75;;
47760;SDS011;33524;55.434;38.520;2023-03-01T14:50:51;2.80;;;1.90;;
47760;SDS011;33524;55.434;38.520;2023-03-01T14:53:27;1.80;;;1.67;;
47760;SDS011;33524;55.434;38.520;2023-03-01T14:56:17;5.68;;;2.33;;
47760;SDS011;33524;55.434;38.520;2023-03-01T14:58:51;6.05;;;1.98;;
47760;SDS011;33524;55.434;38.520;2023-03-01T15:01:28;5.12;;;2.62;;
47760;SDS011;33524;55.434;38.520;2023-03-01T15:03:59;4.87;;;2.15;;
47760;SDS011;33524;55.434;38.520;2023-03-01T15:06:30;1.58;;;1.30;;
47760;SDS011;33524;55.434;38.520;2023-03-01T15:09:01;2.30;;;1.55;;
47760;SDS011;33524;55.434;38.520;2023-03-01T15:11:32;4.62;;;2.05;;
47760;SDS011;33524;55.434;38.520;2023-03-01T15:14:24;4.03;;;1.92;;
47760;SDS011;33524;55.434;38.520;2023-03-01T15:17:35;3.92;;;2.35;;
47760;SDS011;33524;55.434;38.520;2023-03-01T15:20:15;4.37;;;1.98;;
47760;SDS011;33524;55.434;38.520;2023-03-01T15:22:47;4.50;;;1.65;;
47760;SDS011;33524;55.434;38.520;2023-03-01T15:25:18;3.58;;;1.58;;
47760;SDS011;33524;55.434;38.520;2023-03-01T15:27:52;3.28;;;1.65;;
47760;SDS011;33524;55.434;38.520;2023-03-01T15:30:38;5.95;;;2.42;;
47760;SDS011;33524;55.434;38.520;2023-03-01T15:33:16;5.00;;;2.33;;
47760;SDS011;33524;55.434;38.520;2023-03-01T15:35:58;5.03;;;1.73;;
47760;SDS011;33524;55.434;38.520;2023-03-01T15:39:05;5.60;;;2.22;;
47760;SDS011;33524;55.434;38.520;2023-03-01T15:41:25;3.20;;;1.87;;
47760;SDS011;33524;55.434;38.520;2023-03-01T15:44:00;2.83;;;1.70;;
47760;SDS011;33524;55.434;38.520;2023-03-01T15:46:45;2.70;;;1.48;;
47760;SDS011;33524;55.434;38.520;2023-03-01T15:52:54;2.72;;;1.85;;
47760;SDS011;33524;55.434;38.520;2023-03-01T15:55:15;5.70;;;2.97;;
47760;SDS011;33524;55.434;38.520;2023-03-01T15:57:49;5.80;;;2.50;;
47760;SDS011;33524;55.434;38.520;2023-03-01T16:00:29;4.95;;;2.10;;
47760;SDS011;33524;55.434;38.520;2023-03-01T16:03:00;7.30;;;1.92;;
47760;SDS011;33524;55.434;38.520;2023-03-01T16:05:31;3.72;;;1.70;;
47760;SDS011;33524;55.434;38.520;2023-03-01T16:08:05;4.75;;;2.80;;
47760;SDS011;33524;55.434;38.520;2023-03-01T16:10:35;2.95;;;2.00;;
47760;SDS011;33524;55.434;38.520;2023-03-01T16:13:07;2.55;;;1.87;;
47760;SDS011;33524;55.434;38.520;2023-03-01T16:15:37;4.28;;;2.40;;
47760;SDS011;33524;55.434;38.520;2023-03-01T16:18:08;2.83;;;2.17;;
47760;SDS011;33524;55.434;38.520;2023-03-01T16:20:42;3.15;;;2.10;;
47760;SDS011;33524;55.434;38.520;2023-03-01T16:23:14;3.47;;;2.17;;
47760;SDS011;33524;55.434;38.520;2023-03-01T16:25:45;5.22;;;1.75;;
47760;SDS011;33524;55.434;38.520;2023-03-01T16:28:16;2.80;;;1.58;;
47760;SDS011;33524;55.434;38.520;2023-03-01T16:30:46;4.90;;;3.05;;
47760;SDS011;33524;55.434;38.520;2023-03-01T16:33:18;6.03;;;2.42;;
47760;SDS011;33524;55.434;38.520;2023-03-01T16:36:01;2.45;;;1.87;;
47760;SDS011;33524;55.434;38.520;2023-03-01T16:38:38;8.10;;;3.17;;
47760;SDS011;33524;55.434;38.520;2023-03-01T16:41:11;6.62;;;3.00;;
47760;SDS011;33524;55.434;38.520;2023-03-01T16:43:43;9.40;;;3.95;;
47760;SDS011;33524;55.434;38.520;2023-03-01T16:48:48;4.43;;;2.45;;
47760;SDS011;33524;55.434;38.520;2023-03-01T16:51:19;5.65;;;2.75;;
47760;SDS011;33524;55.434;38.520;2023-03-01T16:53:50;5.40;;;2.72;;
47760;SDS011;33524;55.434;38.520;2023-03-01T16:56:21;2.42;;;1.75;;
47760;SDS011;33524;55.434;38.520;2023-03-01T16:58:51;3.42;;;2.05;;